createdAt,value
2023-02-04T00:00:10.041Z,96.26
2023-02-04T00:01:14.273Z,96.33
2023-02-04T00:02:18.626Z,96.40
2023-02-04T00:03:22.684Z,96.47
2023-02-04T00:04:26.851Z,96.56
2023-02-04T00:05:45.149Z,96.59
2023-02-04T00:06:48.011Z,96.55
2023-02-04T00:07:52.135Z,96.64
2023-02-04T00:08:56.372Z,96.71
2023-02-04T00:10:00.538Z,96.73
2023-02-04T00:11:04.723Z,96.80
2023-02-04T00:12:08.897Z,96.82
2023-02-04T00:13:13.087Z,96.89
2023-02-04T00:14:17.169Z,96.93
2023-02-04T00:15:21.438Z,97.00
2023-02-04T00:16:25.720Z,97.06
2023-02-04T00:17:29.669Z,97.18
2023-02-04T00:18:33.909Z,97.19
2023-02-04T00:19:38.060Z,97.23
2023-02-04T00:20:42.284Z,97.28
2023-02-04T00:21:46.453Z,97.33
2023-02-04T00:22:50.723Z,97.32
2023-02-04T00:23:56.376Z,97.38
2023-02-04T00:24:59.002Z,97.40
2023-02-04T00:26:03.196Z,97.45
2023-02-04T00:27:07.409Z,97.47
2023-02-04T00:28:11.712Z,97.52
2023-02-04T00:29:15.728Z,97.57
2023-02-04T00:30:19.938Z,97.56
2023-02-04T00:31:24.222Z,97.56
2023-02-04T00:32:28.429Z,97.58
2023-02-04T00:33:32.615Z,97.59
2023-02-04T00:34:36.846Z,97.62
2023-02-04T00:35:41.005Z,97.64
2023-02-04T00:36:45.199Z,97.70
2023-02-04T00:37:49.373Z,97.73
2023-02-04T00:38:53.537Z,97.72
2023-02-04T00:39:57.570Z,97.67
2023-02-04T00:41:01.793Z,97.66
2023-02-04T00:42:05.982Z,97.60
2023-02-04T00:43:10.084Z,97.53
2023-02-04T00:44:14.375Z,97.46
2023-02-04T00:45:18.469Z,97.41
2023-02-04T00:46:22.698Z,97.34
2023-02-04T00:47:26.851Z,97.31
2023-02-04T00:48:31.065Z,97.25
2023-02-04T00:49:35.273Z,97.22
2023-02-04T00:50:53.400Z,97.22
2023-02-04T00:51:56.369Z,97.20
2023-02-04T00:53:00.473Z,97.22
2023-02-04T00:54:04.623Z,97.26
2023-02-04T00:55:08.800Z,97.22
2023-02-04T00:56:12.879Z,97.22
2023-02-04T00:57:17.197Z,97.24
2023-02-04T00:58:21.228Z,97.20
2023-02-04T00:59:25.622Z,97.19
2023-02-04T01:00:30.229Z,97.17
2023-02-04T01:01:33.918Z,97.17
2023-02-04T01:02:38.187Z,97.17
2023-02-04T01:03:42.311Z,97.17
2023-02-04T01:04:46.530Z,97.16
2023-02-04T01:05:50.662Z,97.15
2023-02-04T01:06:54.988Z,97.18
2023-02-04T01:07:59.172Z,97.19
2023-02-04T01:09:03.320Z,97.25
2023-02-04T01:10:07.533Z,97.25
2023-02-04T01:11:11.701Z,97.33
2023-02-04T01:12:15.851Z,97.38
2023-02-04T01:13:20.039Z,97.42
2023-02-04T01:14:24.131Z,97.45
2023-02-04T01:15:28.353Z,97.51
2023-02-04T01:16:32.758Z,97.55
2023-02-04T01:17:36.903Z,97.65
2023-02-04T01:18:41.045Z,97.70
2023-02-04T01:19:45.240Z,97.76
2023-02-04T01:20:49.450Z,97.83
2023-02-04T01:21:53.622Z,97.90
2023-02-04T01:22:57.801Z,97.95
2023-02-04T01:24:02.067Z,97.99
2023-02-04T01:25:06.359Z,98.04
2023-02-04T01:26:10.475Z,98.07
2023-02-04T01:27:14.619Z,98.10
2023-02-04T01:28:18.865Z,98.10
2023-02-04T01:29:23.111Z,98.15
2023-02-04T01:30:27.142Z,98.17
2023-02-04T01:31:31.523Z,98.25
2023-02-04T01:32:35.548Z,98.23
2023-02-04T01:33:39.718Z,98.22
2023-02-04T01:34:44.068Z,98.19
2023-02-04T01:35:48.179Z,98.17
2023-02-04T01:36:52.341Z,98.11
2023-02-04T01:37:56.537Z,98.10
2023-02-04T01:39:00.721Z,98.09
2023-02-04T01:40:04.902Z,98.03
2023-02-04T01:41:08.991Z,97.98
2023-02-04T01:42:13.283Z,97.96
2023-02-04T01:43:17.432Z,97.92
2023-02-04T01:44:21.618Z,97.86
2023-02-04T01:45:25.803Z,97.80
2023-02-04T01:46:29.984Z,97.83
2023-02-04T01:47:34.218Z,97.70
2023-02-04T01:48:41.378Z,97.67
2023-02-04T01:49:44.706Z,97.60
2023-02-04T01:50:48.889Z,97.57
2023-02-04T01:51:52.992Z,97.57
2023-02-04T01:52:57.168Z,97.52
2023-02-04T01:54:01.353Z,97.54
2023-02-04T01:55:05.453Z,97.49
2023-02-04T01:56:09.552Z,97.48
2023-02-04T01:57:13.801Z,97.46
2023-02-04T01:58:18.065Z,97.42
2023-02-04T01:59:22.347Z,97.39
2023-02-04T02:00:26.432Z,97.40
2023-02-04T02:01:30.827Z,97.37
2023-02-04T02:02:35.057Z,97.41
2023-02-04T02:03:39.090Z,97.42
2023-02-04T02:04:43.268Z,97.43
2023-02-04T02:05:50.461Z,97.48
2023-02-04T02:06:53.701Z,97.53
2023-02-04T02:07:57.864Z,97.57
2023-02-04T02:09:02.067Z,97.63
2023-02-04T02:10:06.294Z,97.68
2023-02-04T02:11:10.408Z,97.74
2023-02-04T02:12:14.535Z,97.81
2023-02-04T02:13:18.831Z,97.84
2023-02-04T02:14:22.966Z,97.89
2023-02-04T02:15:27.112Z,97.92
2023-02-04T02:16:31.395Z,97.93
2023-02-04T02:17:35.467Z,97.97
2023-02-04T02:18:39.594Z,98.02
2023-02-04T02:19:43.808Z,98.00
2023-02-04T02:20:47.964Z,98.03
2023-02-04T02:21:52.184Z,98.03
2023-02-04T02:22:56.366Z,98.02
2023-02-04T02:24:00.574Z,98.02
2023-02-04T02:25:04.767Z,97.98
2023-02-04T02:26:08.914Z,98.02
2023-02-04T02:27:13.102Z,98.04
2023-02-04T02:28:17.351Z,98.03
2023-02-04T02:29:21.539Z,98.03
2023-02-04T02:30:25.974Z,98.01
2023-02-04T02:31:29.953Z,97.99
2023-02-04T02:32:34.012Z,97.91
2023-02-04T02:33:38.178Z,97.86
2023-02-04T02:34:42.327Z,97.82
2023-02-04T02:35:46.595Z,97.77
2023-02-04T02:36:50.735Z,97.73
2023-02-04T02:38:08.935Z,97.70
2023-02-04T02:39:12.012Z,97.65
2023-02-04T02:40:16.258Z,97.58
2023-02-04T02:41:20.366Z,97.53
2023-02-04T02:42:24.525Z,97.46
2023-02-04T02:43:28.821Z,97.39
2023-02-04T02:44:32.931Z,97.33
2023-02-04T02:45:37.150Z,97.28
2023-02-04T02:46:41.313Z,97.21
2023-02-04T02:47:45.472Z,97.19
2023-02-04T02:48:49.634Z,97.14
2023-02-04T02:49:53.801Z,97.13
2023-02-04T02:50:57.971Z,97.12
2023-02-04T02:52:02.225Z,97.08
2023-02-04T02:53:06.351Z,97.03
2023-02-04T02:54:10.543Z,96.94
2023-02-04T02:55:14.754Z,96.88
2023-02-04T02:56:18.920Z,96.83
2023-02-04T02:57:26.192Z,96.81
2023-02-04T02:58:29.461Z,96.77
2023-02-04T02:59:33.600Z,96.71
2023-02-04T03:00:37.783Z,96.72
2023-02-04T03:01:41.963Z,96.59
2023-02-04T03:02:46.220Z,96.54
2023-02-04T03:03:50.334Z,96.44
2023-02-04T03:04:54.612Z,96.33
2023-02-04T03:05:58.718Z,96.24
2023-02-04T03:07:02.803Z,96.16
2023-02-04T03:08:07.045Z,96.05
2023-02-04T03:09:11.146Z,95.98
2023-02-04T03:10:15.365Z,95.89
2023-02-04T03:11:19.585Z,95.79
2023-02-04T03:12:23.690Z,95.75
2023-02-04T03:13:27.964Z,95.73
2023-02-04T03:14:32.076Z,95.69
2023-02-04T03:15:36.354Z,95.69
2023-02-04T03:16:40.547Z,95.62
2023-02-04T03:17:44.717Z,95.58
2023-02-04T03:18:48.857Z,95.61
2023-02-04T03:19:53.147Z,95.54
2023-02-04T03:20:57.250Z,95.55
2023-02-04T03:22:01.356Z,95.55
2023-02-04T03:23:05.589Z,95.47
2023-02-04T03:24:09.662Z,95.44
2023-02-04T03:25:13.858Z,95.39
2023-02-04T03:26:18.036Z,95.36
2023-02-04T03:27:22.210Z,95.33
2023-02-04T03:28:26.409Z,95.30
2023-02-04T03:29:30.419Z,95.31
2023-02-04T03:30:34.641Z,95.33
2023-02-04T03:31:39.034Z,95.35
2023-02-04T03:32:43.862Z,95.36
2023-02-04T03:33:47.737Z,95.35
2023-02-04T03:34:51.891Z,95.29
2023-02-04T03:35:56.156Z,95.18
2023-02-04T03:37:00.255Z,95.23
2023-02-04T03:38:04.364Z,95.20
2023-02-04T03:39:08.632Z,95.21
2023-02-04T03:40:12.653Z,95.20
2023-02-04T03:41:16.803Z,95.23
2023-02-04T03:42:21.031Z,95.25
2023-02-04T03:43:25.217Z,95.26
2023-02-04T03:44:29.489Z,95.21
2023-02-04T03:45:44.721Z,95.15
2023-02-04T03:46:37.854Z,95.09
2023-02-04T03:47:41.863Z,95.01
2023-02-04T03:48:46.211Z,94.96
2023-02-04T03:49:50.239Z,94.92
2023-02-04T03:50:54.466Z,94.81
2023-02-04T03:51:58.636Z,94.69
2023-02-04T03:53:02.744Z,94.59
2023-02-04T03:54:06.853Z,94.48
2023-02-04T03:55:10.961Z,94.40
2023-02-04T03:56:15.205Z,94.29
2023-02-04T03:57:19.441Z,94.19
2023-02-04T03:58:23.510Z,94.07
2023-02-04T03:59:27.738Z,93.96
2023-02-04T04:00:32.343Z,93.83
2023-02-04T04:01:36.117Z,93.75
2023-02-04T04:02:40.311Z,93.67
2023-02-04T04:03:44.341Z,93.54
2023-02-04T04:04:48.588Z,93.37
2023-02-04T04:05:52.912Z,93.27
2023-02-04T04:06:56.968Z,93.22
2023-02-04T04:08:01.205Z,93.17
2023-02-04T04:09:05.425Z,93.11
2023-02-04T04:10:09.661Z,93.05
2023-02-04T04:11:13.917Z,93.00
2023-02-04T04:12:18.043Z,93.02
2023-02-04T04:13:22.183Z,93.02
2023-02-04T04:14:26.368Z,92.99
2023-02-04T04:15:30.721Z,92.99
2023-02-04T04:16:34.846Z,93.01
2023-02-04T04:17:38.989Z,92.94
2023-02-04T04:18:43.222Z,92.96
2023-02-04T04:19:47.420Z,92.90
2023-02-04T04:20:51.768Z,92.87
2023-02-04T04:21:55.906Z,92.82
2023-02-04T04:23:00.033Z,92.76
2023-02-04T04:24:04.356Z,92.72
2023-02-04T04:25:08.474Z,92.64
2023-02-04T04:26:12.544Z,92.56
2023-02-04T04:27:16.843Z,92.60
2023-02-04T04:28:20.980Z,92.50
2023-02-04T04:29:25.271Z,92.49
2023-02-04T04:30:29.912Z,92.50
2023-02-04T04:31:33.687Z,92.49
2023-02-04T04:32:37.767Z,92.47
2023-02-04T04:33:41.975Z,92.45
2023-02-04T04:34:46.165Z,92.48
2023-02-04T04:35:50.248Z,92.51
2023-02-04T04:36:54.436Z,92.51
2023-02-04T04:37:58.601Z,92.56
2023-02-04T04:39:02.773Z,92.60
2023-02-04T04:40:06.938Z,92.64
2023-02-04T04:41:11.114Z,92.75
2023-02-04T04:42:15.243Z,92.79
2023-02-04T04:43:33.588Z,92.82
2023-02-04T04:44:36.747Z,92.86
2023-02-04T04:45:40.815Z,92.91
2023-02-04T04:46:44.989Z,92.99
2023-02-04T04:47:49.094Z,93.03
2023-02-04T04:48:53.315Z,93.05
2023-02-04T04:49:57.452Z,93.09
2023-02-04T04:51:01.638Z,93.14
2023-02-04T04:52:05.706Z,93.22
2023-02-04T04:53:09.920Z,93.30
2023-02-04T04:54:14.040Z,93.36
2023-02-04T04:55:18.302Z,93.41
2023-02-04T04:56:22.297Z,93.46
2023-02-04T04:57:26.536Z,93.57
2023-02-04T04:58:30.709Z,93.62
2023-02-04T04:59:34.786Z,93.70
2023-02-04T05:00:38.923Z,93.81
2023-02-04T05:01:43.093Z,93.88
2023-02-04T05:02:47.367Z,93.97
2023-02-04T05:03:51.528Z,94.03
2023-02-04T05:04:55.735Z,94.07
2023-02-04T05:05:59.835Z,94.10
2023-02-04T05:07:04.007Z,94.14
2023-02-04T05:08:08.144Z,94.20
2023-02-04T05:09:12.496Z,94.26
2023-02-04T05:10:16.579Z,94.29
2023-02-04T05:11:20.784Z,94.28
2023-02-04T05:12:24.936Z,94.27
2023-02-04T05:13:32.213Z,94.25
2023-02-04T05:14:35.393Z,94.22
2023-02-04T05:15:39.544Z,94.17
2023-02-04T05:16:43.687Z,94.12
2023-02-04T05:17:48.033Z,94.09
2023-02-04T05:18:51.970Z,94.07
2023-02-04T05:19:56.135Z,94.04
2023-02-04T05:21:00.221Z,94.03
2023-02-04T05:22:04.444Z,94.01
2023-02-04T05:23:08.652Z,94.02
2023-02-04T05:24:12.869Z,94.05
2023-02-04T05:25:17.118Z,94.05
2023-02-04T05:26:29.940Z,94.02
2023-02-04T05:27:25.488Z,94.01
2023-02-04T05:28:29.575Z,94.04
2023-02-04T05:29:33.886Z,94.00
2023-02-04T05:30:38.104Z,93.99
2023-02-04T05:31:42.464Z,93.98
2023-02-04T05:32:46.494Z,93.99
2023-02-04T05:33:50.662Z,93.98
2023-02-04T05:34:54.943Z,93.98
2023-02-04T05:35:59.149Z,93.96
2023-02-04T05:37:03.379Z,93.96
2023-02-04T05:38:07.529Z,93.96
2023-02-04T05:39:25.851Z,93.97
2023-02-04T05:40:29.022Z,93.95
2023-02-04T05:41:33.061Z,93.99
2023-02-04T05:42:37.158Z,94.02
2023-02-04T05:43:41.210Z,94.03
2023-02-04T05:44:45.468Z,93.98
2023-02-04T05:45:49.593Z,93.99
2023-02-04T05:46:53.609Z,94.00
2023-02-04T05:47:57.918Z,93.97
2023-02-04T05:49:01.964Z,93.99
2023-02-04T05:50:06.241Z,94.06
2023-02-04T05:51:10.366Z,94.01
2023-02-04T05:52:14.496Z,94.04
2023-02-04T05:53:18.547Z,94.08
2023-02-04T05:54:22.674Z,94.11
2023-02-04T05:55:26.915Z,94.14
2023-02-04T05:56:31.044Z,94.16
2023-02-04T05:57:35.230Z,94.15
2023-02-04T05:58:40.071Z,94.11
2023-02-04T05:59:43.549Z,94.09
2023-02-04T06:00:47.738Z,94.11
2023-02-04T06:01:51.944Z,94.15
2023-02-04T06:02:56.176Z,94.16
2023-02-04T06:04:00.420Z,94.20
2023-02-04T06:05:04.554Z,94.25
2023-02-04T06:06:08.713Z,94.25
2023-02-04T06:07:12.919Z,94.25
2023-02-04T06:08:17.112Z,94.27
2023-02-04T06:09:21.133Z,94.26
2023-02-04T06:10:25.510Z,94.33
2023-02-04T06:11:29.527Z,94.33
2023-02-04T06:12:33.695Z,94.35
2023-02-04T06:13:37.906Z,94.39
2023-02-04T06:14:42.139Z,94.44
2023-02-04T06:15:46.293Z,94.50
2023-02-04T06:16:50.571Z,94.54
2023-02-04T06:17:54.618Z,94.51
2023-02-04T06:18:58.782Z,94.49
2023-02-04T06:20:02.900Z,94.48
2023-02-04T06:21:07.027Z,94.50
2023-02-04T06:22:11.262Z,94.53
2023-02-04T06:24:42.332Z,94.59
2023-02-04T06:25:46.349Z,94.59
2023-02-04T06:26:50.681Z,94.61
2023-02-04T06:27:54.818Z,94.66
2023-02-04T06:28:59.015Z,94.66
2023-02-04T06:30:03.162Z,94.68
2023-02-04T06:31:07.439Z,94.70
2023-02-04T06:32:11.492Z,94.64
2023-02-04T06:33:15.703Z,94.77
2023-02-04T06:34:19.906Z,94.78
2023-02-04T06:35:24.037Z,94.88
2023-02-04T06:36:28.227Z,94.88
2023-02-04T06:37:32.283Z,94.83
2023-02-04T06:38:36.496Z,94.82
2023-02-04T06:39:40.749Z,94.70
2023-02-04T06:40:44.976Z,94.61
2023-02-04T06:41:49.104Z,94.61
2023-02-04T06:42:53.346Z,94.66
2023-02-04T06:43:57.500Z,94.67
2023-02-04T06:45:01.559Z,94.66
2023-02-04T06:46:05.811Z,94.68
2023-02-04T06:47:09.904Z,94.70
2023-02-04T06:48:14.122Z,94.70
2023-02-04T06:49:18.110Z,94.73
2023-02-04T06:50:22.436Z,94.74
2023-02-04T06:51:26.802Z,94.76
2023-02-04T06:52:30.973Z,94.79
2023-02-04T06:53:35.039Z,94.81
2023-02-04T06:54:39.237Z,94.84
2023-02-04T06:55:43.516Z,94.85
2023-02-04T06:56:47.754Z,94.86
2023-02-04T06:57:51.897Z,94.92
2023-02-04T06:58:55.950Z,94.90
2023-02-04T07:00:01.056Z,94.90
2023-02-04T07:01:04.853Z,94.89
2023-02-04T07:02:08.929Z,94.88
2023-02-04T07:03:13.088Z,94.86
2023-02-04T07:04:17.322Z,94.85
2023-02-04T07:05:21.549Z,94.83
2023-02-04T07:06:25.592Z,94.81
2023-02-04T07:07:29.666Z,94.78
2023-02-04T07:08:33.876Z,94.75
2023-02-04T07:09:38.083Z,94.74
2023-02-04T07:10:42.285Z,94.71
2023-02-04T07:11:46.319Z,94.76
2023-02-04T07:12:50.544Z,94.79
2023-02-04T07:13:54.538Z,94.78
2023-02-04T07:14:58.826Z,94.77
2023-02-04T07:16:03.076Z,94.77
2023-02-04T07:17:07.110Z,94.77
2023-02-04T07:18:11.512Z,94.75
2023-02-04T07:19:15.634Z,94.70
2023-02-04T07:20:19.819Z,94.64
2023-02-04T07:21:24.010Z,94.53
2023-02-04T07:22:28.039Z,94.42
2023-02-04T07:23:32.283Z,94.30
2023-02-04T07:24:36.513Z,94.24
2023-02-04T07:25:41.753Z,94.11
2023-02-04T07:26:46.556Z,94.04
2023-02-04T07:27:50.856Z,93.98
2023-02-04T07:28:55.041Z,93.88
2023-02-04T07:30:02.210Z,93.73
2023-02-04T07:31:05.546Z,93.65
2023-02-04T07:32:09.756Z,93.53
2023-02-04T07:33:13.709Z,93.44
2023-02-04T07:34:17.908Z,93.37
2023-02-04T07:35:22.054Z,93.30
2023-02-04T07:36:26.329Z,93.23
2023-02-04T07:37:30.302Z,93.22
2023-02-04T07:38:34.633Z,93.17
2023-02-04T07:39:38.644Z,93.10
2023-02-04T07:40:42.849Z,93.08
2023-02-04T07:41:47.103Z,93.04
2023-02-04T07:42:51.123Z,92.88
2023-02-04T07:43:55.296Z,92.76
2023-02-04T07:44:59.485Z,92.59
2023-02-04T07:46:03.672Z,92.42
2023-02-04T07:47:07.812Z,92.35
2023-02-04T07:48:12.024Z,92.20
2023-02-04T07:49:16.218Z,92.13
2023-02-04T07:50:21.273Z,91.98
2023-02-04T07:51:26.508Z,91.89
2023-02-04T07:52:29.145Z,91.80
2023-02-04T07:53:33.395Z,91.68
2023-02-04T07:54:37.456Z,91.60
2023-02-04T07:55:41.693Z,91.45
2023-02-04T07:56:45.760Z,91.29
2023-02-04T07:57:49.982Z,91.13
2023-02-04T07:58:54.157Z,90.99
2023-02-04T07:59:58.425Z,90.93
2023-02-04T08:01:02.664Z,90.92
2023-02-04T08:02:06.647Z,90.91
2023-02-04T08:03:10.951Z,90.94
2023-02-04T08:04:15.251Z,90.99
2023-02-04T08:05:19.374Z,91.04
2023-02-04T08:06:23.557Z,91.11
2023-02-04T08:07:27.700Z,91.11
2023-02-04T08:08:31.818Z,91.09
2023-02-04T08:09:36.020Z,90.91
2023-02-04T08:10:40.281Z,90.82
2023-02-04T08:11:44.402Z,90.66
2023-02-04T08:12:48.851Z,90.60
2023-02-04T08:13:52.904Z,90.53
2023-02-04T08:14:57.251Z,90.46
2023-02-04T08:16:01.334Z,90.30
2023-02-04T08:17:05.423Z,90.28
2023-02-04T08:18:09.522Z,90.27
2023-02-04T08:19:13.743Z,90.13
2023-02-04T08:20:17.918Z,90.07
2023-02-04T08:21:22.162Z,90.00
2023-02-04T08:22:26.303Z,89.91
2023-02-04T08:23:30.485Z,89.88
2023-02-04T08:24:34.632Z,89.81
2023-02-04T08:25:38.817Z,89.70
2023-02-04T08:26:42.912Z,89.50
2023-02-04T08:27:47.150Z,89.31
2023-02-04T08:28:51.263Z,89.17
2023-02-04T08:29:55.518Z,88.98
2023-02-04T08:30:59.759Z,88.87
2023-02-04T08:32:03.746Z,88.75
2023-02-04T08:33:07.960Z,88.76
2023-02-04T08:34:12.182Z,88.79
2023-02-04T08:35:17.244Z,88.77
2023-02-04T08:36:21.020Z,88.76
2023-02-04T08:37:25.181Z,88.76
2023-02-04T08:38:29.372Z,88.78
2023-02-04T08:39:33.522Z,88.82
2023-02-04T08:40:37.753Z,88.84
2023-02-04T08:41:41.908Z,88.72
2023-02-04T08:42:46.159Z,88.66
2023-02-04T08:43:50.287Z,88.56
2023-02-04T08:44:54.516Z,88.43
2023-02-04T08:45:58.701Z,88.40
2023-02-04T08:47:02.932Z,88.44
2023-02-04T08:48:07.032Z,88.38
2023-02-04T08:49:11.251Z,88.29
2023-02-04T08:50:29.719Z,88.25
2023-02-04T08:51:32.428Z,88.20
2023-02-04T08:52:36.566Z,88.13
2023-02-04T08:53:40.876Z,88.01
2023-02-04T08:54:44.899Z,87.87
2023-02-04T08:55:49.123Z,87.80
2023-02-04T08:56:53.316Z,87.73
2023-02-04T08:57:57.463Z,87.69
2023-02-04T08:59:01.796Z,87.74
2023-02-04T09:00:05.900Z,87.79
2023-02-04T09:01:10.182Z,87.93
2023-02-04T09:02:14.380Z,87.98
2023-02-04T09:03:18.299Z,88.04
2023-02-04T09:04:22.556Z,88.12
2023-02-04T09:05:26.679Z,88.21
2023-02-04T09:06:30.919Z,88.26
2023-02-04T09:07:35.135Z,88.36
2023-02-04T09:08:40.165Z,88.44
2023-02-04T09:09:43.926Z,88.46
2023-02-04T09:10:48.140Z,88.48
2023-02-04T09:11:52.296Z,88.55
2023-02-04T09:12:56.430Z,88.67
2023-02-04T09:14:00.609Z,88.77
2023-02-04T09:15:04.807Z,88.90
2023-02-04T09:16:08.976Z,88.98
2023-02-04T09:17:13.238Z,89.08
2023-02-04T09:18:17.452Z,89.10
2023-02-04T09:19:21.568Z,89.19
2023-02-04T09:20:25.772Z,89.30
2023-02-04T09:21:29.805Z,89.41
2023-02-04T09:22:34.037Z,89.40
2023-02-04T09:23:38.167Z,89.39
2023-02-04T09:24:42.297Z,89.43
2023-02-04T09:25:46.566Z,89.41
2023-02-04T09:26:50.818Z,89.45
2023-02-04T09:27:55.172Z,89.53
2023-02-04T09:28:59.245Z,89.53
2023-02-04T09:30:03.438Z,89.48
2023-02-04T09:31:07.736Z,89.32
2023-02-04T09:32:11.850Z,89.28
2023-02-04T09:33:15.997Z,89.27
2023-02-04T09:34:20.180Z,89.20
2023-02-04T09:35:24.250Z,89.25
2023-02-04T09:36:28.525Z,89.24
2023-02-04T09:37:32.806Z,89.21
2023-02-04T09:38:36.922Z,88.98
2023-02-04T09:39:41.106Z,88.74
2023-02-04T09:40:45.282Z,88.53
2023-02-04T09:41:49.530Z,88.41
2023-02-04T09:42:53.753Z,88.22
2023-02-04T09:43:57.930Z,88.08
2023-02-04T09:45:02.060Z,87.99
2023-02-04T09:46:06.325Z,87.93
2023-02-04T09:47:10.417Z,87.81
2023-02-04T09:48:14.517Z,87.68
2023-02-04T09:49:18.680Z,87.61
2023-02-04T09:50:22.906Z,87.56
2023-02-04T09:51:27.030Z,87.49
2023-02-04T09:52:31.215Z,87.43
2023-02-04T09:53:35.324Z,87.42
2023-02-04T09:54:39.531Z,87.52
2023-02-04T09:55:43.705Z,87.62
2023-02-04T09:56:47.880Z,87.65
2023-02-04T09:57:52.012Z,87.51
2023-02-04T09:58:56.147Z,87.25
2023-02-04T10:00:00.314Z,87.11
2023-02-04T10:02:31.656Z,86.83
2023-02-04T10:03:35.834Z,86.73
2023-02-04T10:04:39.905Z,86.56
2023-02-04T10:05:44.010Z,86.34
2023-02-04T10:06:48.154Z,86.13
2023-02-04T10:07:52.351Z,85.99
2023-02-04T10:08:56.477Z,85.85
2023-02-04T10:10:00.671Z,85.67
2023-02-04T10:11:04.820Z,85.62
2023-02-04T10:12:09.129Z,85.70
2023-02-04T10:13:13.220Z,85.68
2023-02-04T10:14:17.390Z,85.67
2023-02-04T10:15:21.573Z,85.72
2023-02-04T10:16:25.800Z,85.77
2023-02-04T10:17:30.035Z,85.77
2023-02-04T10:18:34.162Z,85.78
2023-02-04T10:19:38.358Z,85.61
2023-02-04T10:20:42.549Z,85.45
2023-02-04T10:21:46.786Z,85.40
2023-02-04T10:22:50.972Z,85.21
2023-02-04T10:23:55.137Z,84.83
2023-02-04T10:24:59.283Z,84.82
2023-02-04T10:26:03.433Z,84.68
2023-02-04T10:27:07.630Z,84.71
2023-02-04T10:28:11.953Z,84.52
2023-02-04T10:29:16.109Z,84.24
2023-02-04T10:30:20.497Z,83.85
2023-02-04T10:31:24.599Z,83.79
2023-02-04T10:32:28.660Z,83.71
2023-02-04T10:33:32.820Z,83.61
2023-02-04T10:34:37.124Z,83.46
2023-02-04T10:35:55.268Z,83.38
2023-02-04T10:36:57.957Z,83.33
2023-02-04T10:38:02.030Z,83.19
2023-02-04T10:39:06.146Z,83.14
2023-02-04T10:40:10.256Z,82.92
2023-02-04T10:41:14.466Z,82.89
2023-02-04T10:42:18.619Z,83.10
2023-02-04T10:43:22.760Z,83.22
2023-02-04T10:44:26.895Z,83.38
2023-02-04T10:45:31.114Z,83.37
2023-02-04T10:46:35.289Z,83.31
2023-02-04T10:47:39.449Z,83.33
2023-02-04T10:48:43.650Z,83.45
2023-02-04T10:49:47.845Z,83.36
2023-02-04T10:50:52.012Z,83.25
2023-02-04T10:51:57.868Z,83.13
2023-02-04T10:53:00.401Z,82.95
2023-02-04T10:54:18.669Z,82.89
2023-02-04T10:55:21.614Z,82.71
2023-02-04T10:56:25.669Z,82.61
2023-02-04T10:57:29.928Z,82.50
2023-02-04T10:58:34.090Z,82.31
2023-02-04T10:59:38.236Z,82.25
2023-02-04T11:00:42.289Z,82.14
2023-02-04T11:01:46.616Z,82.01
2023-02-04T11:02:50.745Z,81.77
2023-02-04T11:03:54.909Z,81.63
2023-02-04T11:04:59.126Z,81.56
2023-02-04T11:06:03.261Z,81.51
2023-02-04T11:07:07.457Z,81.62
2023-02-04T11:08:11.682Z,81.61
2023-02-04T11:09:15.825Z,81.41
2023-02-04T11:10:20.049Z,81.46
2023-02-04T11:11:24.163Z,81.57
2023-02-04T11:12:28.381Z,81.63
2023-02-04T11:13:32.531Z,81.61
2023-02-04T11:14:36.801Z,81.47
2023-02-04T11:15:41.202Z,81.40
2023-02-04T11:16:45.124Z,81.27
2023-02-04T11:17:49.384Z,81.32
2023-02-04T11:18:53.619Z,81.33
2023-02-04T11:19:57.627Z,81.26
2023-02-04T11:21:01.839Z,81.19
2023-02-04T11:22:06.051Z,81.08
2023-02-04T11:23:10.217Z,80.94
2023-02-04T11:24:14.396Z,80.81
2023-02-04T11:25:19.843Z,80.87
2023-02-04T11:26:23.500Z,80.83
2023-02-04T11:27:27.507Z,80.79
2023-02-04T11:28:31.693Z,80.86
2023-02-04T11:29:35.841Z,80.96
2023-02-04T11:30:40.295Z,81.00
2023-02-04T11:31:44.510Z,81.15
2023-02-04T11:32:48.466Z,81.39
2023-02-04T11:33:52.902Z,81.42
2023-02-04T11:34:57.534Z,81.47
2023-02-04T11:36:01.484Z,81.33
2023-02-04T11:37:05.479Z,81.34
2023-02-04T11:38:09.752Z,81.27
2023-02-04T11:39:14.208Z,81.02
2023-02-04T11:40:18.399Z,80.88
2023-02-04T11:41:22.354Z,80.72
2023-02-04T11:42:26.578Z,80.67
2023-02-04T11:43:30.717Z,80.55
2023-02-04T11:44:34.973Z,80.50
2023-02-04T11:45:39.155Z,80.46
2023-02-04T11:46:43.328Z,80.45
2023-02-04T11:47:47.480Z,80.56
2023-02-04T11:48:51.678Z,80.72
2023-02-04T11:49:55.951Z,80.80
2023-02-04T11:51:00.116Z,80.86
2023-02-04T11:52:04.293Z,80.90
2023-02-04T11:53:08.473Z,80.79
2023-02-04T11:54:12.683Z,80.74
2023-02-04T11:55:16.923Z,80.73
2023-02-04T11:56:21.088Z,80.81
2023-02-04T11:57:25.224Z,80.71
2023-02-04T11:58:29.541Z,80.56
2023-02-04T11:59:33.573Z,80.52
2023-02-04T12:00:37.759Z,80.56
2023-02-04T12:01:41.950Z,80.59
2023-02-04T12:02:46.181Z,80.69
2023-02-04T12:03:53.412Z,80.78
2023-02-04T12:04:56.683Z,80.96
2023-02-04T12:06:00.966Z,81.16
2023-02-04T12:07:05.139Z,81.15
2023-02-04T12:08:11.554Z,80.77
2023-02-04T12:09:13.531Z,80.24
2023-02-04T12:10:17.847Z,79.75
2023-02-04T12:11:21.912Z,79.21
2023-02-04T12:12:26.102Z,78.96
2023-02-04T12:13:30.990Z,78.87
2023-02-04T12:14:34.493Z,78.84
2023-02-04T12:15:38.805Z,78.67
2023-02-04T12:16:42.972Z,78.63
2023-02-04T12:17:47.196Z,78.68
2023-02-04T12:18:51.324Z,78.79
2023-02-04T12:19:55.590Z,78.81
2023-02-04T12:20:59.758Z,78.98
2023-02-04T12:22:03.909Z,79.07
2023-02-04T12:23:08.216Z,79.05
2023-02-04T12:24:12.369Z,79.07
2023-02-04T12:25:16.698Z,79.14
2023-02-04T12:26:20.816Z,79.28
2023-02-04T12:27:25.064Z,79.10
2023-02-04T12:28:29.272Z,78.66
2023-02-04T12:29:33.430Z,77.29
2023-02-04T12:30:37.697Z,75.97
2023-02-04T12:31:42.063Z,75.39
2023-02-04T12:33:00.242Z,75.15
2023-02-04T12:34:03.365Z,75.25
2023-02-04T12:35:07.455Z,75.44
2023-02-04T12:36:11.724Z,75.67
2023-02-04T12:37:15.818Z,75.92
2023-02-04T12:38:20.638Z,76.25
2023-02-04T12:39:24.084Z,76.25
2023-02-04T12:40:31.311Z,76.31
2023-02-04T12:41:34.760Z,76.33
2023-02-04T12:42:38.846Z,76.25
2023-02-04T12:43:43.109Z,76.16
2023-02-04T12:44:47.401Z,75.88
2023-02-04T12:45:51.572Z,75.65
2023-02-04T12:46:55.771Z,75.63
2023-02-04T12:47:59.926Z,75.59
2023-02-04T12:49:04.141Z,75.53
2023-02-04T12:50:22.198Z,75.63
2023-02-04T12:51:25.291Z,75.68
2023-02-04T12:52:29.410Z,75.80
2023-02-04T12:53:33.593Z,75.72
2023-02-04T12:54:37.750Z,74.96
2023-02-04T12:55:41.921Z,74.42
2023-02-04T12:56:46.269Z,74.08
2023-02-04T12:57:50.358Z,73.73
2023-02-04T12:58:54.551Z,73.26
2023-02-04T12:59:58.733Z,72.94
2023-02-04T13:01:04.422Z,73.15
2023-02-04T13:02:07.067Z,73.37
2023-02-04T13:03:11.280Z,73.39
2023-02-04T13:04:15.413Z,73.26
2023-02-04T13:05:19.661Z,73.33
2023-02-04T13:06:23.813Z,73.46
2023-02-04T13:07:28.126Z,73.65
2023-02-04T13:08:32.395Z,73.57
2023-02-04T13:09:36.561Z,73.41
2023-02-04T13:10:40.808Z,73.27
2023-02-04T13:11:44.988Z,72.84
2023-02-04T13:12:52.172Z,72.53
2023-02-04T13:13:55.492Z,72.21
2023-02-04T13:14:59.612Z,72.10
2023-02-04T13:16:03.897Z,72.04
2023-02-04T13:17:08.014Z,72.02
2023-02-04T13:18:12.206Z,71.91
2023-02-04T13:19:16.381Z,71.86
2023-02-04T13:20:20.666Z,71.96
2023-02-04T13:21:24.804Z,72.04
2023-02-04T13:22:29.921Z,72.04
2023-02-04T13:23:33.832Z,72.19
2023-02-04T13:24:37.968Z,71.87
2023-02-04T13:25:42.169Z,71.35
2023-02-04T13:26:46.403Z,71.12
2023-02-04T13:27:50.523Z,71.04
2023-02-04T13:28:54.590Z,70.99
2023-02-04T13:29:58.907Z,71.06
2023-02-04T13:31:04.478Z,71.03
2023-02-04T13:32:07.188Z,71.18
2023-02-04T13:33:11.495Z,71.22
2023-02-04T13:34:15.514Z,71.36
2023-02-04T13:35:19.893Z,71.58
2023-02-04T13:36:24.135Z,71.59
2023-02-04T13:37:28.434Z,71.75
2023-02-04T13:38:46.465Z,71.82
2023-02-04T13:39:49.476Z,71.87
2023-02-04T13:40:53.531Z,71.70
2023-02-04T13:41:57.774Z,71.49
2023-02-04T13:43:02.087Z,71.52
2023-02-04T13:44:06.234Z,71.42
2023-02-04T13:45:10.474Z,71.53
2023-02-04T13:46:14.609Z,71.64
2023-02-04T13:47:18.771Z,71.77
2023-02-04T13:48:22.894Z,71.87
2023-02-04T13:49:27.102Z,71.94
2023-02-04T13:50:32.601Z,72.14
2023-02-04T13:51:35.914Z,72.30